Time;durP1;ratioP1;P1;durP2;ratioP2;P2;SDS_P1;SDS_P2;PMS_P1;PMS_P2;Temp;Humidity;BMP_temperature;BMP_pressure;BME280_temperature;BME280_humidity;BME280_pressure;Samples;Min_cycle;Max_cycle;Signal;HPM_P1;HPM_P2
2022/02/24 00:00:24;;;;;;;8.13;4.57;;;;;;;0.42;100.00;100307.81;5088655;28;20627;-73
2022/02/24 00:02:53;;;;;;;6.37;4.30;;;;;;;0.38;100.00;100307.25;5083264;28;20224;-73
2022/02/24 00:05:21;;;;;;;6.03;4.10;;;;;;;0.38;100.00;100317.78;5087831;28;20658;-73
2022/02/24 00:07:48;;;;;;;6.83;4.00;;;;;;;0.37;100.00;100316.13;5081102;28;20274;-73
2022/02/24 00:10:20;;;;;;;4.77;3.60;;;;;;;0.42;100.00;100316.53;5078622;28;20229;-74
2022/02/24 00:12:50;;;;;;;6.17;3.70;;;;;;;0.42;100.00;100321.81;5082842;28;20234;-74
2022/02/24 00:15:17;;;;;;;5.10;3.63;;;;;;;0.40;100.00;100318.50;5085794;28;20332;-74
2022/02/24 00:17:43;;;;;;;4.10;3.27;;;;;;;0.58;100.00;100323.91;5088792;28;20212;-73
2022/02/24 00:20:11;;;;;;;9.20;3.80;;;;;;;0.65;100.00;100316.28;5092348;28;20324;-73
2022/02/24 00:22:41;;;;;;;7.70;3.50;;;;;;;0.63;100.00;100310.31;5084387;28;20243;-73
2022/02/24 00:25:09;;;;;;;4.77;3.13;;;;;;;0.63;100.00;100308.50;5070771;28;20232;-72
2022/02/24 00:27:38;;;;;;;5.63;3.57;;;;;;;0.60;100.00;100308.78;5076193;28;20282;-73
2022/02/24 00:30:09;;;;;;;7.97;3.80;;;;;;;0.62;100.00;100306.00;5068999;28;20228;-73
2022/02/24 00:32:40;;;;;;;4.60;3.00;;;;;;;0.57;98.49;100306.41;5091644;28;20237;-72
2022/02/24 00:35:12;;;;;;;4.40;3.00;;;;;;;0.60;94.50;100300.88;5082561;28;20277;-75
2022/02/24 00:37:42;;;;;;;5.53;2.90;;;;;;;0.59;92.58;100291.28;5064439;28;20226;-73
2022/02/24 00:40:11;;;;;;;3.90;2.47;;;;;;;0.44;91.68;100277.69;5088975;28;20232;-74
2022/02/24 00:42:38;;;;;;;3.37;2.70;;;;;;;0.37;91.29;100276.56;5085402;28;20543;-74
2022/02/24 00:45:07;;;;;;;4.70;2.50;;;;;;;0.42;88.95;100268.28;5082524;28;20308;-73
2022/02/24 00:47:34;;;;;;;3.63;2.70;;;;;;;0.37;88.95;100262.59;5083383;28;20313;-74
2022/02/24 00:50:01;;;;;;;4.40;2.40;;;;;;;0.34;87.82;100268.94;5087736;28;20230;-73
2022/02/24 00:52:28;;;;;;;3.77;2.50;;;;;;;0.30;88.16;100261.47;5081889;28;20221;-73
2022/02/24 00:54:58;;;;;;;3.03;2.13;;;;;;;0.29;86.82;100260.63;5086135;28;20320;-73
2022/02/24 00:57:25;;;;;;;3.90;2.50;;;;;;;0.27;86.90;100264.38;5090375;22;20331;-73
2022/02/24 00:59:55;;;;;;;2.60;1.80;;;;;;;0.25;85.30;100261.03;5054921;28;20232;-72
2022/02/24 01:02:22;;;;;;;3.70;1.80;;;;;;;0.33;82.48;100255.91;5068097;28;20228;-73
2022/02/24 01:04:49;;;;;;;2.63;1.83;;;;;;;0.39;81.04;100253.56;5084726;28;20224;-72
2022/02/24 01:07:19;;;;;;;4.53;2.03;;;;;;;0.39;80.11;100248.28;5066719;28;20248;-74
2022/02/24 01:09:46;;;;;;;4.40;1.90;;;;;;;0.43;79.14;100248.81;5082328;28;20213;-73
2022/02/24 01:12:14;;;;;;;2.37;1.80;;;;;;;0.37;79.63;100241.50;5084191;28;20260;-73
2022/02/24 01:14:41;;;;;;;3.63;2.10;;;;;;;0.36;78.88;100235.38;5083146;28;20652;-72
2022/02/24 01:17:12;;;;;;;4.53;2.17;;;;;;;0.37;78.31;100233.59;5092000;23;20215;-73
2022/02/24 01:19:39;;;;;;;4.90;1.90;;;;;;;0.35;78.70;100232.88;5051198;28;20252;-73
2022/02/24 01:22:16;;;;;;;3.67;2.10;;;;;;;0.44;77.44;100234.69;5064496;28;20268;-73
2022/02/24 01:24:45;;;;;;;3.67;1.93;;;;;;;0.41;76.61;100240.25;5074733;28;20236;-73
2022/02/24 01:27:12;;;;;;;4.20;2.13;;;;;;;0.43;76.13;100235.66;5094571;22;20568;-73
2022/02/24 01:29:40;;;;;;;3.67;2.10;;;;;;;0.41;75.03;100224.44;5075251;28;20233;-73
2022/02/24 01:32:08;;;;;;;2.40;1.80;;;;;;;0.40;74.82;100226.22;5051328;22;20226;-73
2022/02/24 01:34:34;;;;;;;2.97;1.97;;;;;;;0.39;75.05;100227.19;5047219;28;20229;-73
2022/02/24 01:37:02;;;;;;;2.40;1.60;;;;;;;0.40;74.48;100226.22;5059237;28;20245;-73
2022/02/24 01:39:29;;;;;;;3.47;1.80;;;;;;;0.41;73.92;100227.06;5064374;28;20221;-73
2022/02/24 01:41:56;;;;;;;2.17;1.50;;;;;;;0.39;73.86;100229.00;5044707;28;20239;-73
2022/02/24 01:44:26;;;;;;;2.87;1.83;;;;;;;0.32;72.98;100217.34;5048758;22;20237;-72
2022/02/24 01:46:55;;;;;;;2.50;1.57;;;;;;;0.32;73.19;100212.09;5086871;28;20253;-73
2022/02/24 01:49:24;;;;;;;3.70;1.90;;;;;;;0.31;72.28;100213.88;5085251;22;20302;-73
2022/02/24 01:51:53;;;;;;;2.83;1.43;;;;;;;0.30;72.08;100217.50;5041861;28;20282;-73
2022/02/24 01:54:20;;;;;;;2.90;1.57;;;;;;;0.35;70.47;100220.53;5044347;28;20253;-74
2022/02/24 01:56:47;;;;;;;3.30;1.67;;;;;;;0.32;70.00;100212.91;5052645;28;20213;-72
2022/02/24 01:59:14;;;;;;;2.63;1.40;;;;;;;0.33;68.78;100208.44;5068915;22;20241;-73
2022/02/24 02:01:43;;;;;;;2.80;1.50;;;;;;;0.31;69.34;100213.88;5064437;28;20662;-73
2022/02/24 02:04:10;;;;;;;2.47;1.40;;;;;;;0.28;68.79;100200.97;5073230;28;20219;-73
2022/02/24 02:06:39;;;;;;;2.70;1.80;;;;;;;0.18;69.74;100202.81;5077276;28;20320;-73
2022/02/24 02:09:06;;;;;;;2.73;1.40;;;;;;;0.12;71.01;100206.00;5083208;28;20213;-73
2022/02/24 02:11:33;;;;;;;1.83;1.50;;;;;;;0.12;71.10;100205.16;5072449;28;20521;-75
2022/02/24 02:14:00;;;;;;;2.07;1.60;;;;;;;0.00;72.09;100191.31;5074802;28;20216;-73
2022/02/24 02:16:26;;;;;;;4.30;1.67;;;;;;;-0.03;73.23;100186.28;5081099;28;20235;-73
2022/02/24 02:18:56;;;;;;;2.83;1.50;;;;;;;-0.13;73.73;100178.38;5080622;28;20220;-73
2022/02/24 02:21:23;;;;;;;2.77;1.80;;;;;;;-0.20;75.09;100171.19;5081281;28;20224;-73
2022/02/24 02:23:52;;;;;;;2.33;1.40;;;;;;;-0.23;75.97;100174.91;5078977;28;20225;-73
2022/02/24 02:26:19;;;;;;;3.50;1.97;;;;;;;-0.27;76.85;100175.31;5081630;28;20236;-72
2022/02/24 02:28:46;;;;;;;4.30;2.30;;;;;;;-0.28;76.48;100161.31;5077622;28;20251;-74
2022/02/24 02:31:19;;;;;;;3.90;2.13;;;;;;;-0.42;78.19;100161.72;5061786;28;20225;-73
2022/02/24 02:33:46;;;;;;;4.63;2.53;;;;;;;-0.46;79.51;100148.00;5082779;28;20225;-73
2022/02/24 02:36:14;;;;;;;3.73;2.37;;;;;;;-0.41;78.72;100152.84;5076733;28;20286;-73
2022/02/24 02:38:41;;;;;;;3.60;2.30;;;;;;;-0.43;79.98;100139.00;5082652;28;20238;-74
2022/02/24 02:41:07;;;;;;;3.53;2.40;;;;;;;-0.48;80.17;100135.97;5078264;28;20222;-73
2022/02/24 02:43:34;;;;;;;3.77;1.90;;;;;;;-0.51;82.43;100125.69;5081676;28;20232;-73
2022/02/24 02:46:04;;;;;;;3.47;1.67;;;;;;;-0.49;82.49;100129.03;5066167;28;20246;-73
2022/02/24 02:48:33;;;;;;;3.90;2.27;;;;;;;-0.59;83.70;100131.63;5082051;28;20232;-73
2022/02/24 02:50:59;;;;;;;3.23;2.03;;;;;;;-0.65;85.18;100115.56;5082365;28;20220;-74
2022/02/24 02:53:29;;;;;;;2.57;1.60;;;;;;;-0.72;87.10;100109.19;5082309;28;20232;-74
2022/02/24 02:56:01;;;;;;;3.90;1.77;;;;;;;-0.71;88.50;100109.06;5080635;28;20216;-72
2022/02/24 02:58:38;;;;;;;2.83;1.80;;;;;;;-0.72;90.03;100109.19;5086105;28;20626;-72
2022/02/24 03:01:13;;;;;;;3.00;1.77;;;;;;;-0.86;91.54;100112.19;5065624;23;20226;-73
2022/02/24 03:03:47;;;;;;;3.30;1.90;;;;;;;-0.89;92.85;100102.78;5045218;28;20275;-73
2022/02/24 03:06:19;;;;;;;1.50;1.40;;;;;;;-0.95;95.55;100098.91;5051716;28;20250;-75
2022/02/24 03:08:51;;;;;;;3.30;1.77;;;;;;;-1.06;98.11;100100.78;5052005;28;20625;-73
2022/02/24 03:11:18;;;;;;;6.57;1.90;;;;;;;-1.12;100.00;100104.78;5063708;23;20233;-72
2022/02/24 03:13:48;;;;;;;3.70;2.00;;;;;;;-1.18;100.00;100099.25;5092995;28;20239;-73
2022/02/24 03:16:19;;;;;;;2.90;1.93;;;;;;;-1.23;100.00;100109.31;5089814;28;20231;-73
2022/02/24 03:18:49;;;;;;;2.50;1.67;;;;;;;-1.20;100.00;100102.00;5069241;28;20225;-73
2022/02/24 03:21:18;;;;;;;3.87;2.00;;;;;;;-1.20;100.00;100102.00;5088535;28;20220;-73
2022/02/24 03:23:45;;;;;;;4.00;1.90;;;;;;;-1.31;100.00;100093.38;5094575;28;20311;-75
2022/02/24 03:26:14;;;;;;;2.30;1.60;;;;;;;-1.41;100.00;100080.22;5107066;22;20254;-73
2022/02/24 03:28:53;;;;;;;2.03;1.63;;;;;;;-1.42;100.00;100087.25;5076153;28;20216;-80
2022/02/24 03:31:25;;;;;;;2.43;1.77;;;;;;;-1.40;100.00;100079.25;5099103;22;20188;-76
2022/02/24 03:34:13;;;;;;;4.23;1.70;;;;;;;-1.49;100.00;100078.22;5079835;22;20217;-71
2022/02/24 03:36:41;;;;;;;3.40;1.80;;;;;;;-1.54;100.00;100080.41;5078456;28;20239;-77
2022/02/24 03:39:51;;;;;;;2.97;1.60;;;;;;;-1.49;100.00;100078.22;5175138;22;20224;31
2022/02/24 03:42:36;;;;;;;3.40;1.80;;;;;;;-1.54;100.00;100072.53;4997067;28;20216;-75
2022/02/24 03:45:25;;;;;;;2.83;1.60;;;;;;;-1.67;100.00;100076.34;5010966;28;20234;-76
2022/02/24 03:48:05;;;;;;;3.20;1.60;;;;;;;-1.69;100.00;100071.22;5006381;28;20257;-78
2022/02/24 03:50:51;;;;;;;2.00;1.50;;;;;;;-1.68;100.00;100058.94;4998113;28;20193;-73
2022/02/24 03:53:18;;;;;;;4.57;1.60;;;;;;;-1.59;100.00;100055.50;4979154;29;20243;-79
2022/02/24 03:55:51;;;;;;;3.63;1.57;;;;;;;-1.39;100.00;100047.56;5013598;23;20237;-77
2022/02/24 03:58:36;;;;;;;2.80;1.40;;;;;;;-1.18;100.00;100044.03;5069689;23;20232;-80
2022/02/24 04:01:15;;;;;;;3.17;1.30;;;;;;;-1.05;100.00;100039.34;5116440;22;20307;-74
2022/02/24 04:03:42;;;;;;;2.03;1.20;;;;;;;-0.79;100.00;100034.41;5058763;28;20204;-78
2022/02/24 04:06:31;;;;;;;2.97;1.60;;;;;;;-0.53;100.00;100032.88;5069029;23;20260;-81
2022/02/24 04:09:22;;;;;;;2.40;1.30;;;;;;;-0.27;100.00;100030.50;5076624;23;20530;-74
2022/02/24 04:11:59;;;;;;;2.33;1.10;;;;;;;0.04;99.18;100018.81;5096724;23;20255;-75
2022/02/24 04:14:33;;;;;;;2.30;1.10;;;;;;;0.48;95.50;100014.59;5102188;28;20231;-76
2022/02/24 04:17:16;;;;;;;2.40;1.17;;;;;;;1.04;90.70;99997.75;5103893;22;20221;-73
2022/02/24 04:20:02;;;;;;;4.20;1.17;;;;;;;1.52;83.17;100008.78;5064269;23;20237;-74
2022/02/24 04:22:35;;;;;;;4.90;0.80;;;;;;;1.84;80.95;100004.72;5069811;28;20275;-73
2022/02/24 04:25:03;;;;;;;3.17;0.80;;;;;;;2.20;76.66;99996.50;5060113;28;20233;-73
2022/02/24 04:27:50;;;;;;;2.70;0.97;;;;;;;2.39;74.52;99990.16;5068069;28;20217;-73
2022/02/24 04:30:29;;;;;;;3.07;1.10;;;;;;;2.77;71.71;99988.81;5073514;23;20232;-73
2022/02/24 04:33:11;;;;;;;2.00;0.90;;;;;;;3.19;68.75;99983.44;5158589;23;20252;-73
2022/02/24 04:35:39;;;;;;;2.27;0.90;;;;;;;3.26;67.86;99979.16;5110478;22;20251;-73
2022/02/24 04:38:34;;;;;;;1.50;1.00;;;;;;;3.55;66.82;99974.19;5081708;22;20292;-74
2022/02/24 04:41:05;;;;;;;2.17;0.80;;;;;;;3.80;64.08;99963.56;5080201;22;20201;-73
2022/02/24 04:44:00;;;;;;;1.90;0.80;;;;;;;3.76;63.99;99964.91;5128331;23;20256;-73
2022/02/24 04:46:34;;;;;;;2.07;0.80;;;;;;;3.81;63.26;99965.25;5092035;23;20255;-74
2022/02/24 04:49:04;;;;;;;1.00;0.80;;;;;;;3.64;64.59;99953.81;5101730;28;20220;-73
2022/02/24 04:51:43;;;;;;;2.43;1.20;;;;;;;3.61;64.70;99953.31;5101206;22;20269;-73
2022/02/24 04:54:15;;;;;;;3.00;1.00;;;;;;;3.70;62.25;99955.81;5043450;28;20214;-73
2022/02/24 04:56:46;;;;;;;2.30;1.00;;;;;;;3.64;62.47;99950.38;5086245;28;20214;-73
2022/02/24 04:59:13;;;;;;;2.43;1.07;;;;;;;3.51;62.94;99953.50;5084890;23;20239;-72
2022/02/24 05:01:46;;;;;;;1.93;0.90;;;;;;;3.56;62.50;99935.28;5042904;23;20238;-74
2022/02/24 05:04:22;;;;;;;2.87;1.20;;;;;;;3.60;62.13;99941.06;5039008;23;20225;-74
2022/02/24 05:06:50;;;;;;;3.07;1.00;;;;;;;3.47;62.79;99926.53;5069184;28;20177;-74
2022/02/24 05:09:26;;;;;;;2.47;1.20;;;;;;;3.37;63.41;99940.91;5085355;23;20555;-73
2022/02/24 05:11:54;;;;;;;2.43;1.20;;;;;;;3.33;63.92;99931.66;5076815;23;20278;-73
2022/02/24 05:14:40;;;;;;;2.20;1.10;;;;;;;3.24;65.07;99928.19;5074864;28;20178;-73
2022/02/24 05:17:22;;;;;;;1.40;0.80;;;;;;;3.22;65.21;99924.06;5068544;28;20314;-73
2022/02/24 05:22:35;;;;;;;2.43;1.10;;;;;;;3.23;65.38;99923.03;5004565;28;20532;-72
2022/02/24 05:25:03;;;;;;;1.93;0.90;;;;;;;3.13;65.55;99917.09;5013744;28;20282;-73
2022/02/24 05:27:30;;;;;;;3.83;1.40;;;;;;;3.15;65.96;99918.59;5005799;28;20231;-73
2022/02/24 05:29:57;;;;;;;2.23;1.03;;;;;;;3.05;66.02;99921.38;4988398;28;20254;-73
2022/02/24 05:32:25;;;;;;;2.47;1.10;;;;;;;2.95;66.78;99919.88;5005123;28;20231;-73
2022/02/24 05:34:53;;;;;;;2.83;1.00;;;;;;;2.89;67.25;99923.19;5002114;28;20282;-73
2022/02/24 05:37:25;;;;;;;2.70;1.10;;;;;;;2.87;67.15;99915.41;5008064;28;20653;-73
2022/02/24 05:39:59;;;;;;;1.67;1.00;;;;;;;2.85;67.32;99905.97;5033779;28;20257;-73
2022/02/24 05:42:36;;;;;;;1.70;0.83;;;;;;;2.83;67.85;99908.78;5016343;28;20238;-73
2022/02/24 05:45:04;;;;;;;3.63;1.40;;;;;;;2.81;67.62;99915.22;5054649;23;20225;-72
2022/02/24 05:47:35;;;;;;;2.07;0.90;;;;;;;2.84;67.29;99904.34;5056588;28;20232;-73
2022/02/24 05:50:07;;;;;;;3.13;1.10;;;;;;;2.87;67.92;99902.19;5077503;22;20337;-73
2022/02/24 05:52:36;;;;;;;3.27;1.03;;;;;;;2.83;68.13;99905.31;5060564;28;20217;-73
2022/02/24 05:55:10;;;;;;;3.73;1.17;;;;;;;2.73;68.34;99908.13;5077158;28;20602;-74
2022/02/24 05:57:45;;;;;;;2.00;1.30;;;;;;;2.70;69.26;99903.16;5065730;28;20217;-72
2022/02/24 06:00:12;;;;;;;1.70;1.27;;;;;;;2.75;69.80;99910.59;5069983;28;20300;-73
2022/02/24 06:02:45;;;;;;;2.73;1.43;;;;;;;2.93;69.67;99911.28;5037285;28;20247;-73
2022/02/24 06:05:12;;;;;;;2.13;1.70;;;;;;;2.95;70.67;99915.41;5071951;28;20416;-73
2022/02/24 06:07:39;;;;;;;4.30;1.77;;;;;;;3.00;71.64;99904.34;5057551;28;20224;-73
2022/02/24 06:10:08;;;;;;;2.33;1.50;;;;;;;3.13;71.69;99909.97;5069821;28;20221;-73
2022/02/24 06:12:34;;;;;;;3.33;1.40;;;;;;;3.12;72.52;99904.84;5062078;28;20229;-73
2022/02/24 06:15:04;;;;;;;3.37;1.70;;;;;;;3.24;73.03;99908.81;5037038;28;20526;-73
2022/02/24 06:17:37;;;;;;;3.87;2.00;;;;;;;3.38;73.44;99901.03;5032106;28;20302;-73
2022/02/24 06:20:08;;;;;;;4.03;2.10;;;;;;;3.45;73.37;99899.34;5036883;28;20321;-73
2022/02/24 06:22:35;;;;;;;4.87;2.13;;;;;;;3.62;73.57;99894.88;5060980;28;20237;-73
2022/02/24 06:25:03;;;;;;;4.03;2.10;;;;;;;3.69;73.48;99892.38;5060636;28;20328;-73
2022/02/24 06:27:32;;;;;;;6.83;2.40;;;;;;;3.79;72.93;99887.72;5069629;28;20368;-73
2022/02/24 06:30:01;;;;;;;10.10;3.23;;;;;;;3.88;73.04;99884.03;5066956;28;20288;-73
2022/02/24 06:32:28;;;;;;;4.00;2.90;;;;;;;3.93;72.64;99879.06;5064877;28;20223;-73
2022/02/24 06:34:56;;;;;;;9.10;3.13;;;;;;;4.06;72.71;99875.88;5051433;28;20229;-73
2022/02/24 06:37:24;;;;;;;9.43;2.97;;;;;;;4.20;72.48;99880.47;5059032;28;20217;-73
2022/02/24 06:39:51;;;;;;;10.10;3.00;;;;;;;4.19;73.05;99876.97;5063076;28;20244;-73
2022/02/24 06:42:18;;;;;;;10.57;3.50;;;;;;;4.25;72.98;99878.09;5073119;28;20228;-73
2022/02/24 06:44:46;;;;;;;8.83;3.20;;;;;;;4.35;73.83;99874.22;5067459;28;20301;-73
2022/02/24 06:47:14;;;;;;;8.57;2.93;;;;;;;4.41;73.97;99876.19;5061322;28;20224;-73
2022/02/24 06:49:41;;;;;;;4.80;3.10;;;;;;;4.69;74.01;99879.19;5071646;28;20237;-73
2022/02/24 06:52:08;;;;;;;4.87;2.90;;;;;;;4.78;73.23;99878.13;5073687;28;20261;-73
2022/02/24 06:54:35;;;;;;;4.53;3.03;;;;;;;4.93;74.08;99869.41;5061003;28;20525;-73
2022/02/24 06:57:06;;;;;;;5.17;2.83;;;;;;;5.16;73.13;99872.88;5078461;28;20221;-73
2022/02/24 06:59:37;;;;;;;4.37;3.13;;;;;;;5.32;72.62;99868.22;5059020;28;20245;-72
2022/02/24 07:02:06;;;;;;;4.83;3.13;;;;;;;5.53;71.88;99872.84;5074423;28;20225;-72
2022/02/24 07:04:34;;;;;;;4.40;3.30;;;;;;;5.87;69.64;99863.56;5057850;28;20221;-73
2022/02/24 07:07:04;;;;;;;5.77;3.50;;;;;;;6.07;68.94;99854.81;5054441;28;20225;-73
2022/02/24 07:09:31;;;;;;;4.27;3.33;;;;;;;6.23;67.79;99861.78;5066903;28;20232;-73
2022/02/24 07:12:00;;;;;;;5.50;4.40;;;;;;;6.39;67.45;99858.91;5071980;28;20217;-73
2022/02/24 07:14:32;;;;;;;6.53;4.80;;;;;;;6.57;66.23;99864.66;5070228;28;20193;-74
2022/02/24 07:17:11;;;;;;;6.83;5.00;;;;;;;6.70;65.43;99866.63;5081944;28;20240;-72
2022/02/24 07:19:38;;;;;;;6.00;4.57;;;;;;;6.85;64.99;99863.91;5057094;28;20214;-74
2022/02/24 07:22:14;;;;;;;3.87;3.37;;;;;;;6.95;64.63;99851.13;5075268;28;20228;-73
2022/02/24 07:24:50;;;;;;;5.10;3.80;;;;;;;7.17;64.13;99854.59;5062659;28;20221;-73
2022/02/24 07:27:17;;;;;;;6.30;4.10;;;;;;;7.29;63.07;99851.19;5050508;28;20256;-73
2022/02/24 07:29:45;;;;;;;5.63;3.70;;;;;;;7.39;63.22;99848.19;5047138;28;20229;-73
2022/02/24 07:32:12;;;;;;;4.60;3.73;;;;;;;7.53;62.53;99837.44;5071840;28;20241;-74
2022/02/24 07:34:39;;;;;;;4.73;3.40;;;;;;;7.75;61.99;99837.34;5070825;28;20636;-74
2022/02/24 07:37:07;;;;;;;5.23;3.97;;;;;;;7.84;61.27;99837.00;5074801;28;20244;-73
2022/02/24 07:39:37;;;;;;;4.90;3.60;;;;;;;7.96;60.21;99842.63;5069457;28;20519;-73
2022/02/24 07:42:04;;;;;;;5.27;3.77;;;;;;;7.95;60.43;99840.97;5078354;28;20237;-73
2022/02/24 07:44:31;;;;;;;6.70;4.07;;;;;;;8.02;60.34;99838.34;5065444;28;20225;-73
2022/02/24 07:46:58;;;;;;;5.37;3.20;;;;;;;8.04;59.92;99837.09;5064524;28;20211;-73
2022/02/24 07:49:26;;;;;;;4.87;3.33;;;;;;;8.13;59.65;99829.75;5069620;28;20320;-73
2022/02/24 07:51:52;;;;;;;5.80;4.10;;;;;;;8.17;59.59;99836.34;5069948;28;20228;-74
2022/02/24 07:54:23;;;;;;;6.53;5.57;;;;;;;8.15;59.14;99828.53;5085421;22;20236;-75
2022/02/24 07:56:53;;;;;;;7.17;4.27;;;;;;;8.24;58.72;99826.53;5097370;28;20477;-80
2022/02/24 07:59:37;;;;;;;6.23;3.90;;;;;;;8.35;57.96;99818.78;5097931;28;20207;-75
2022/02/24 08:02:26;;;;;;;5.63;4.13;;;;;;;8.38;57.98;99820.25;5192505;22;20239;-73
2022/02/24 08:04:56;;;;;;;4.63;3.70;;;;;;;8.48;57.56;99823.34;5072904;28;20201;-74
2022/02/24 08:07:38;;;;;;;6.17;4.17;;;;;;;8.56;57.53;99820.50;5058514;28;20246;-80
2022/02/24 08:10:19;;;;;;;4.70;4.10;;;;;;;8.56;57.80;99825.84;5086408;22;20247;-73
2022/02/24 08:12:57;;;;;;;5.17;3.77;;;;;;;8.62;56.99;99813.53;5071659;23;20228;-72
2022/02/24 08:15:26;;;;;;;5.53;3.90;;;;;;;8.75;57.23;99813.53;5086378;23;20198;-75
2022/02/24 08:18:10;;;;;;;3.97;3.50;;;;;;;8.81;55.74;99813.56;5089075;23;20240;-73
2022/02/24 08:20:37;;;;;;;5.07;3.97;;;;;;;8.86;55.97;99817.47;5058060;28;20230;-80
2022/02/24 08:26:43;;;;;;;8.63;4.53;;;;;;;8.87;54.98;99795.88;5028951;22;20273;-75
2022/02/24 08:29:30;;;;;;;6.77;4.90;;;;;;;8.98;54.30;99789.94;5063133;28;20328;-78
2022/02/24 08:31:59;;;;;;;5.13;3.70;;;;;;;9.11;54.26;99789.09;5075327;28;20216;-74
2022/02/24 08:34:31;;;;;;;4.90;4.20;;;;;;;9.14;53.60;99792.19;5058104;28;20230;-74
2022/02/24 08:37:04;;;;;;;3.83;3.20;;;;;;;9.29;52.63;99787.44;5078596;23;20232;-74
2022/02/24 08:39:57;;;;;;;5.20;3.80;;;;;;;9.44;52.30;99792.56;5151617;22;20223;-72
2022/02/24 08:42:39;;;;;;;3.87;3.20;;;;;;;9.71;52.34;99782.63;5091242;22;20205;-78
2022/02/24 08:45:37;;;;;;;3.93;3.40;;;;;;;9.77;52.06;99783.66;5078444;23;20228;-77
2022/02/24 08:48:08;;;;;;;5.07;3.43;;;;;;;9.77;52.94;99778.28;5073613;23;20225;-74
2022/02/24 08:50:39;;;;;;;4.67;3.30;;;;;;;9.76;52.75;99772.13;5044553;23;20233;-73
2022/02/24 08:53:36;;;;;;;6.87;4.00;;;;;;;9.93;52.27;99767.97;5071978;22;20282;-72
2022/02/24 08:56:34;;;;;;;5.90;3.80;;;;;;;9.95;52.83;99773.06;5087644;22;20225;-74
2022/02/24 08:59:38;;;;;;;7.47;3.23;;;;;;;10.14;52.45;99774.84;5108735;22;20255;-73
2022/02/24 09:02:38;;;;;;;6.70;4.00;;;;;;;10.13;52.45;99767.84;5064044;22;20251;-75
2022/02/24 09:05:09;;;;;;;6.47;3.63;;;;;;;10.24;49.98;99763.72;5082672;23;20218;-73
2022/02/24 09:08:12;;;;;;;4.27;3.03;;;;;;;10.45;50.47;99750.81;5081754;23;20247;-79
2022/02/24 09:10:50;;;;;;;4.70;3.33;;;;;;;10.59;49.47;99754.25;5083994;23;20256;-73
2022/02/24 09:13:30;;;;;;;5.27;3.60;;;;;;;10.63;50.27;99758.13;5063116;28;20230;-74
2022/02/24 09:15:59;;;;;;;4.07;3.60;;;;;;;10.71;48.62;99751.69;5049692;28;20233;-73
2022/02/24 09:18:29;;;;;;;5.03;3.60;;;;;;;10.76;48.39;99743.81;5081523;23;20314;-77
2022/02/24 09:21:04;;;;;;;4.90;3.70;;;;;;;10.88;49.88;99739.38;5092859;28;20236;-77
2022/02/24 09:23:44;;;;;;;4.03;3.60;;;;;;;11.06;48.98;99746.66;5081409;28;20541;-73
2022/02/24 09:26:12;;;;;;;6.23;3.73;;;;;;;11.22;48.70;99741.56;5092339;22;20238;-73
2022/02/24 09:28:46;;;;;;;6.00;3.60;;;;;;;11.36;48.26;99735.03;5070453;23;20230;-74
2022/02/24 09:31:23;;;;;;;7.57;4.30;;;;;;;11.47;47.77;99733.47;5079285;23;20230;-76
2022/02/24 09:34:03;;;;;;;7.50;3.97;;;;;;;11.51;47.76;99729.31;5074885;28;20213;-74
2022/02/24 09:36:35;;;;;;;4.87;3.70;;;;;;;11.63;46.83;99724.81;5090478;28;20229;-75
2022/02/24 09:39:05;;;;;;;4.20;3.80;;;;;;;11.67;47.38;99720.63;5094696;28;20228;-76
2022/02/24 09:41:35;;;;;;;4.43;3.40;;;;;;;11.78;47.12;99722.63;5089909;28;20232;-73
2022/02/24 09:44:11;;;;;;;5.13;4.50;;;;;;;12.00;48.71;99722.13;5084259;23;20236;-72
2022/02/24 09:46:47;;;;;;;5.10;4.17;;;;;;;11.89;48.39;99721.03;5090843;28;20295;-73
2022/02/24 09:49:19;;;;;;;7.10;4.47;;;;;;;12.02;48.26;99718.19;5075889;28;20240;-77
2022/02/24 09:51:51;;;;;;;5.97;4.13;;;;;;;12.03;48.94;99717.16;5087774;22;20220;-74
2022/02/24 09:54:42;;;;;;;6.17;4.13;;;;;;;12.16;47.77;99718.81;5069380;28;20235;-73
2022/02/24 09:57:10;;;;;;;5.07;4.10;;;;;;;12.11;47.62;99722.19;5069701;28;20277;-73
2022/02/24 09:59:37;;;;;;;4.80;3.80;;;;;;;12.29;47.13;99714.09;5047603;28;20233;-73
2022/02/24 10:02:04;;;;;;;5.37;4.37;;;;;;;12.34;46.93;99711.53;5063632;28;20251;-73
2022/02/24 10:04:31;;;;;;;6.73;3.90;;;;;;;12.35;45.70;99710.50;5053935;28;20233;-73
2022/02/24 10:06:58;;;;;;;5.53;4.07;;;;;;;12.33;46.88;99701.00;5057157;28;20312;-73
2022/02/24 10:09:33;;;;;;;6.40;3.57;;;;;;;12.43;46.65;99700.44;5044148;28;20305;-73
2022/02/24 10:12:08;;;;;;;7.00;3.90;;;;;;;12.58;46.04;99693.59;5058103;28;20315;-73
2022/02/24 10:14:36;;;;;;;6.27;4.10;;;;;;;12.67;44.89;99697.59;5037438;28;20253;-73
2022/02/24 10:17:07;;;;;;;5.77;3.73;;;;;;;12.79;44.88;99694.91;5051168;28;20224;-74
2022/02/24 10:19:45;;;;;;;8.03;3.83;;;;;;;12.91;44.57;99689.56;5065935;28;20229;-74
2022/02/24 10:22:28;;;;;;;4.70;3.53;;;;;;;13.01;43.73;99679.84;5055321;28;20228;-73
2022/02/24 10:25:06;;;;;;;3.87;3.30;;;;;;;13.12;44.30;99668.28;5051171;28;20224;-73
2022/02/24 10:27:40;;;;;;;6.27;3.30;;;;;;;13.18;43.90;99666.53;5060361;28;20292;-73
2022/02/24 10:30:18;;;;;;;4.13;3.20;;;;;;;13.33;42.03;99668.75;5049045;28;20238;-73
2022/02/24 10:33:13;;;;;;;4.00;2.67;;;;;;;13.44;41.17;99663.31;5063241;28;20225;-73
2022/02/24 10:35:41;;;;;;;3.20;2.67;;;;;;;13.51;40.50;99664.03;5047175;28;20238;-73
2022/02/24 10:38:10;;;;;;;5.40;2.83;;;;;;;13.44;40.38;99647.19;5056648;28;20312;-73
2022/02/24 10:40:42;;;;;;;5.27;3.00;;;;;;;13.66;40.79;99642.00;5057828;28;20326;-73
2022/02/24 10:43:12;;;;;;;5.70;3.43;;;;;;;13.79;42.43;99635.50;5056395;28;20234;-73
2022/02/24 10:45:44;;;;;;;5.47;3.20;;;;;;;13.84;41.49;99641.81;5058460;28;20321;-73
2022/02/24 10:48:11;;;;;;;5.13;3.57;;;;;;;13.91;41.98;99634.38;5067388;23;20233;-73
2022/02/24 10:50:57;;;;;;;5.50;3.93;;;;;;;14.04;42.15;99625.22;5016836;28;20235;-73
2022/02/24 10:53:31;;;;;;;5.53;3.70;;;;;;;14.06;42.05;99625.78;5042127;28;20496;-73
2022/02/24 10:56:05;;;;;;;4.77;3.90;;;;;;;14.05;41.75;99618.75;5038554;28;20511;-73
2022/02/24 10:58:45;;;;;;;4.50;3.90;;;;;;;14.00;41.70;99622.16;5027157;28;20233;-73
2022/02/24 11:01:20;;;;;;;4.50;3.27;;;;;;;14.14;42.04;99611.09;5043368;28;20520;-73
2022/02/24 11:04:09;;;;;;;5.73;3.20;;;;;;;14.26;41.63;99609.16;5052565;28;20317;-73
2022/02/24 11:06:42;;;;;;;4.67;3.20;;;;;;;14.28;41.16;99594.34;5023307;28;20252;-73
2022/02/24 11:09:09;;;;;;;4.33;3.20;;;;;;;14.36;40.63;99601.28;5046953;28;20275;-73
2022/02/24 11:11:37;;;;;;;4.13;3.17;;;;;;;14.42;40.11;99584.91;5049974;28;20231;-73
2022/02/24 11:14:08;;;;;;;3.70;3.07;;;;;;;14.49;40.18;99580.19;5049917;28;20654;-73
2022/02/24 11:16:35;;;;;;;7.03;3.33;;;;;;;14.42;40.20;99573.31;5012276;28;20230;-74
2022/02/24 11:19:03;;;;;;;4.47;3.40;;;;;;;14.53;40.11;99567.03;5043931;28;20272;-73
2022/02/24 11:21:31;;;;;;;3.90;3.03;;;;;;;14.64;39.57;99563.44;5040513;28;20234;-73
2022/02/24 11:23:59;;;;;;;3.27;2.97;;;;;;;14.78;39.43;99555.81;5034134;28;20260;-73
2022/02/24 11:26:43;;;;;;;5.70;3.30;;;;;;;14.83;39.35;99547.78;5037290;28;20312;-72
2022/02/24 11:29:19;;;;;;;3.47;2.97;;;;;;;14.86;38.50;99548.09;5027158;28;20243;-73
2022/02/24 11:32:06;;;;;;;3.43;3.07;;;;;;;14.84;38.40;99533.22;5045456;28;20231;-73
2022/02/24 11:34:52;;;;;;;7.87;2.90;;;;;;;14.94;37.85;99520.69;5049802;28;20233;-73
2022/02/24 11:37:22;;;;;;;4.70;2.93;;;;;;;14.93;38.33;99510.94;5030355;28;20220;-73
2022/02/24 11:40:05;;;;;;;4.03;2.80;;;;;;;15.03;37.80;99510.25;5044115;28;20236;-73
2022/02/24 11:42:42;;;;;;;3.50;2.83;;;;;;;15.05;37.79;99491.97;5040660;28;20228;-73
2022/02/24 11:45:24;;;;;;;4.17;2.40;;;;;;;15.15;37.71;99488.56;5041999;28;20230;-73
2022/02/24 11:48:04;;;;;;;5.00;2.77;;;;;;;15.06;37.39;99488.19;5044376;28;20232;-73
2022/02/24 11:50:37;;;;;;;3.67;3.00;;;;;;;15.20;36.98;99481.34;5058109;23;20491;-72
2022/02/24 11:56:12;;;;;;;3.53;2.50;;;;;;;15.18;37.24;99478.06;4950459;29;20710;-73
2022/02/24 11:59:15;;;;;;;5.00;2.67;;;;;;;15.21;37.53;99480.25;4977811;23;20313;-73
2022/02/24 12:01:52;;;;;;;4.03;2.80;;;;;;;15.19;37.02;99481.59;5050817;28;20297;-73
2022/02/24 12:04:32;;;;;;;5.53;3.33;;;;;;;15.23;37.54;99467.34;5051417;28;20231;-73
2022/02/24 12:07:15;;;;;;;3.90;3.03;;;;;;;15.36;36.67;99466.09;5059221;28;20200;-73
2022/02/24 12:10:11;;;;;;;6.80;3.17;;;;;;;15.31;36.92;99450.69;5042034;28;20213;-73